Time;durP1;ratioP1;P1;durP2;ratioP2;P2;SDS_P1;SDS_P2;PMS_P1;PMS_P2;Temp;Humidity;BMP_temperature;BMP_pressure;BME280_temperature;BME280_humidity;BME280_pressure;Samples;Min_cycle;Max_cycle;Signal;HPM_P1;HPM_P2
2022/08/30 00:02:05;;;;;;;17.33;8.70;;;15.90;99.90;;;;;;5067260;28;20204;-57
2022/08/30 00:04:31;;;;;;;13.27;8.10;;;15.90;99.90;;;;;;5066017;28;20433;-56
2022/08/30 00:06:57;;;;;;;14.63;9.03;;;15.90;99.90;;;;;;5061096;28;20209;-57
2022/08/30 00:09:22;;;;;;;10.80;8.50;;;15.80;99.90;;;;;;5066873;28;20194;-57
2022/08/30 00:11:50;;;;;;;12.60;8.97;;;15.80;99.90;;;;;;5065927;28;20252;-57
2022/08/30 00:14:16;;;;;;;13.13;9.20;;;15.80;99.90;;;;;;5062654;28;20175;-56
2022/08/30 00:16:42;;;;;;;12.27;9.00;;;15.80;99.90;;;;;;5068719;28;20423;-57
2022/08/30 00:19:08;;;;;;;24.20;9.90;;;15.80;99.90;;;;;;5068440;28;20794;-56
2022/08/30 00:21:33;;;;;;;14.57;8.97;;;15.70;99.90;;;;;;5069253;28;20198;-57
2022/08/30 00:23:59;;;;;;;11.00;8.70;;;15.70;99.90;;;;;;5062515;28;20709;-57
2022/08/30 00:26:25;;;;;;;12.20;9.50;;;15.70;99.90;;;;;;5065247;28;20174;-55
2022/08/30 00:28:50;;;;;;;12.77;9.13;;;15.70;99.90;;;;;;5059744;28;20202;-56
2022/08/30 00:31:16;;;;;;;13.93;8.07;;;15.70;99.90;;;;;;5059724;28;20179;-57
2022/08/30 00:33:42;;;;;;;12.00;8.10;;;15.60;99.90;;;;;;5065155;28;20171;-56
2022/08/30 00:36:07;;;;;;;11.90;8.53;;;15.60;99.90;;;;;;5063652;28;20175;-56
2022/08/30 00:38:33;;;;;;;18.50;8.63;;;15.60;99.90;;;;;;5064013;28;20461;-56
2022/08/30 00:40:58;;;;;;;12.20;8.70;;;15.60;99.90;;;;;;5063601;28;20671;-57
2022/08/30 00:43:27;;;;;;;15.20;8.90;;;15.60;99.90;;;;;;5057462;28;20170;-57
2022/08/30 00:45:53;;;;;;;16.73;9.40;;;15.50;99.90;;;;;;5061367;28;20162;-57
2022/08/30 00:48:19;;;;;;;10.77;8.23;;;15.50;99.90;;;;;;5058416;28;20532;-57
2022/08/30 00:50:56;;;;;;;17.47;8.50;;;15.50;99.90;;;;;;5057092;28;20178;-56
2022/08/30 00:53:26;;;;;;;10.00;8.30;;;15.50;99.90;;;;;;5065209;28;20177;-56
2022/08/30 00:55:53;;;;;;;9.90;8.13;;;15.50;99.90;;;;;;5056966;28;20424;-56
2022/08/30 00:58:23;;;;;;;14.17;9.00;;;15.40;99.90;;;;;;5062002;28;20471;-57
2022/08/30 01:00:52;;;;;;;12.00;8.43;;;15.40;99.90;;;;;;5057801;28;20459;-56
2022/08/30 01:03:18;;;;;;;11.97;8.70;;;15.40;99.90;;;;;;5067092;28;20905;-58
2022/08/30 01:05:45;;;;;;;14.83;8.70;;;15.40;99.90;;;;;;5064153;28;20470;-58
2022/08/30 01:08:11;;;;;;;10.73;8.83;;;15.40;99.90;;;;;;5063537;28;20444;-57
2022/08/30 01:10:37;;;;;;;11.00;8.60;;;15.40;99.90;;;;;;5063252;28;20497;-56
2022/08/30 01:13:03;;;;;;;17.00;9.23;;;15.30;99.90;;;;;;5059953;28;20810;-57
2022/08/30 01:15:31;;;;;;;11.20;8.73;;;15.30;99.90;;;;;;5060511;28;20436;-56
2022/08/30 01:17:57;;;;;;;13.43;8.33;;;15.30;99.90;;;;;;5062844;28;20964;-56
2022/08/30 01:20:30;;;;;;;12.33;8.43;;;15.20;99.90;;;;;;5063441;28;20460;-58
2022/08/30 01:23:15;;;;;;;19.50;9.77;;;15.20;99.90;;;;;;5063225;28;20912;-56
2022/08/30 01:25:44;;;;;;;11.30;8.93;;;15.20;99.90;;;;;;5062837;28;20455;-57
2022/08/30 01:28:18;;;;;;;12.03;8.93;;;15.20;99.90;;;;;;5061805;28;20472;-57
2022/08/30 01:30:44;;;;;;;12.53;8.70;;;15.20;99.90;;;;;;5062298;28;20459;-56
2022/08/30 01:33:10;;;;;;;12.67;8.90;;;15.10;99.90;;;;;;5075489;28;20953;-57
2022/08/30 01:35:42;;;;;;;13.70;9.37;;;15.10;99.90;;;;;;5058408;28;20170;-57
2022/08/30 01:38:08;;;;;;;16.57;9.37;;;15.00;99.90;;;;;;5049517;28;20432;-55
2022/08/30 01:40:34;;;;;;;12.87;9.47;;;15.00;99.90;;;;;;5060262;28;20544;-56
2022/08/30 01:43:00;;;;;;;13.83;9.33;;;15.00;99.90;;;;;;5064539;28;20496;-57
2022/08/30 01:45:25;;;;;;;12.20;8.13;;;15.00;99.90;;;;;;5059472;28;20174;-56
2022/08/30 01:47:51;;;;;;;15.60;9.10;;;15.00;99.90;;;;;;5064551;28;20171;-54
2022/08/30 01:50:16;;;;;;;13.00;8.97;;;15.00;99.90;;;;;;5064226;28;20265;-56
2022/08/30 01:52:42;;;;;;;10.80;8.67;;;15.00;99.90;;;;;;5059690;28;20174;-57
2022/08/30 01:55:09;;;;;;;12.40;8.67;;;15.00;99.90;;;;;;5053622;28;20178;-55
2022/08/30 01:57:34;;;;;;;11.90;9.63;;;15.00;99.90;;;;;;5065049;28;20183;-54
2022/08/30 02:00:00;;;;;;;11.63;9.43;;;15.00;99.90;;;;;;5066048;28;21034;-57
2022/08/30 02:02:28;;;;;;;12.93;8.90;;;15.00;99.90;;;;;;5066054;28;20181;-57
2022/08/30 02:04:55;;;;;;;13.90;8.80;;;14.90;99.90;;;;;;5059921;28;20163;-55
2022/08/30 02:07:22;;;;;;;13.83;8.97;;;14.90;99.90;;;;;;5063920;28;20417;-57
2022/08/30 02:09:50;;;;;;;12.97;9.20;;;14.90;99.90;;;;;;5068610;28;20440;-57
2022/08/30 02:12:15;;;;;;;16.53;9.20;;;14.90;99.90;;;;;;5068701;28;20520;-57
2022/08/30 02:14:41;;;;;;;13.13;9.80;;;14.90;99.90;;;;;;5059032;28;22599;-56
2022/08/30 02:17:09;;;;;;;15.50;9.30;;;14.90;99.90;;;;;;5066834;28;20193;-56
2022/08/30 02:19:35;;;;;;;12.07;9.03;;;14.90;99.90;;;;;;5062918;28;20194;-56
2022/08/30 02:22:00;;;;;;;12.20;9.23;;;14.90;99.90;;;;;;5067094;28;20459;-56
2022/08/30 02:24:26;;;;;;;10.90;8.90;;;14.90;99.90;;;;;;5066083;28;20217;-56
2022/08/30 02:26:52;;;;;;;12.80;8.97;;;14.90;99.90;;;;;;5066577;28;20528;-58
2022/08/30 02:29:19;;;;;;;11.23;9.47;;;14.80;99.90;;;;;;5059932;28;20193;-56
2022/08/30 02:31:45;;;;;;;11.27;9.50;;;14.80;99.90;;;;;;5066758;28;20181;-56
2022/08/30 02:34:11;;;;;;;12.33;9.37;;;14.80;99.90;;;;;;5065804;28;20433;-55
2022/08/30 02:36:39;;;;;;;11.93;9.30;;;14.80;99.90;;;;;;5063534;28;20420;-57
2022/08/30 02:39:05;;;;;;;14.03;10.20;;;14.80;99.90;;;;;;5060180;28;20194;-56
2022/08/30 02:41:30;;;;;;;11.67;9.17;;;14.70;99.90;;;;;;5066643;28;20799;-57
2022/08/30 02:43:58;;;;;;;18.20;10.40;;;14.70;99.90;;;;;;5061363;28;20217;-56
2022/08/30 02:46:24;;;;;;;17.90;10.13;;;14.70;99.90;;;;;;5064798;28;20201;-57
2022/08/30 02:48:49;;;;;;;23.27;11.80;;;14.70;99.90;;;;;;5064623;28;21032;-56
2022/08/30 02:51:15;;;;;;;19.60;12.50;;;14.60;99.90;;;;;;5067734;28;20440;-56
2022/08/30 02:53:42;;;;;;;17.93;12.77;;;14.60;99.90;;;;;;5067007;28;20546;-56
2022/08/30 02:56:09;;;;;;;19.43;13.57;;;14.60;99.90;;;;;;5063167;28;20185;-57
2022/08/30 02:58:36;;;;;;;19.20;13.40;;;14.50;99.90;;;;;;5065091;28;20871;-57
2022/08/30 03:01:02;;;;;;;25.80;15.90;;;14.50;99.90;;;;;;5063947;28;20552;-57
2022/08/30 03:03:27;;;;;;;28.57;16.80;;;14.50;99.90;;;;;;5065678;28;20456;-56
2022/08/30 03:05:53;;;;;;;23.87;15.77;;;14.50;99.90;;;;;;5064996;28;20484;-54
2022/08/30 03:08:19;;;;;;;19.83;14.20;;;14.50;99.90;;;;;;5066537;28;20213;-56
2022/08/30 03:10:45;;;;;;;22.30;14.50;;;14.50;99.90;;;;;;5068577;28;20218;-56
2022/08/30 03:13:11;;;;;;;25.90;13.67;;;14.50;99.90;;;;;;5066139;28;20167;-55
2022/08/30 03:15:38;;;;;;;20.30;12.77;;;14.40;99.90;;;;;;5063360;28;20183;-57
2022/08/30 03:18:05;;;;;;;20.10;13.87;;;14.40;99.90;;;;;;5067189;28;20435;-57
2022/08/30 03:20:30;;;;;;;20.63;13.53;;;14.40;99.90;;;;;;5064397;28;20452;-56
2022/08/30 03:22:56;;;;;;;21.43;14.13;;;14.40;99.90;;;;;;5062940;28;20511;-57
2022/08/30 03:25:22;;;;;;;24.07;12.80;;;14.40;99.90;;;;;;5061324;28;20186;-54
2022/08/30 03:27:49;;;;;;;17.87;11.10;;;14.40;99.90;;;;;;5061753;28;20643;-56
2022/08/30 03:30:16;;;;;;;18.47;12.53;;;14.30;99.90;;;;;;5062100;28;20182;-56
2022/08/30 03:32:41;;;;;;;18.10;11.73;;;14.30;99.90;;;;;;5060698;28;20987;-55
2022/08/30 03:35:08;;;;;;;17.50;11.80;;;14.20;99.90;;;;;;5063417;28;20414;-55
2022/08/30 03:37:34;;;;;;;23.80;13.53;;;14.20;99.90;;;;;;5065529;28;20174;-56
2022/08/30 03:40:02;;;;;;;18.93;12.73;;;14.10;99.90;;;;;;5073272;28;20445;-57
2022/08/30 03:42:27;;;;;;;22.80;13.40;;;14.10;99.90;;;;;;5062237;28;20453;-57
2022/08/30 03:44:54;;;;;;;21.00;14.37;;;14.10;99.90;;;;;;5063995;28;20499;-57
2022/08/30 03:47:20;;;;;;;26.40;14.87;;;14.00;99.90;;;;;;5062151;28;20184;-57
2022/08/30 03:49:45;;;;;;;23.13;14.53;;;14.00;99.90;;;;;;5068135;28;20445;-57
2022/08/30 03:52:11;;;;;;;25.83;15.30;;;14.00;99.90;;;;;;5065599;28;20659;-56
2022/08/30 03:54:38;;;;;;;25.10;16.00;;;14.00;99.90;;;;;;5058416;28;20185;-56
2022/08/30 03:57:05;;;;;;;26.77;16.73;;;14.00;99.90;;;;;;5061915;28;20935;-57
2022/08/30 03:59:31;;;;;;;30.77;17.77;;;14.00;99.90;;;;;;5065694;28;20475;-56
2022/08/30 04:01:57;;;;;;;26.50;18.13;;;14.00;99.90;;;;;;5067999;28;20452;-56
2022/08/30 04:04:24;;;;;;;33.13;18.97;;;13.90;99.90;;;;;;5060336;28;20893;-56
2022/08/30 04:06:50;;;;;;;38.93;22.53;;;13.90;99.90;;;;;;5074036;28;20405;-56
2022/08/30 04:09:16;;;;;;;40.67;24.17;;;13.90;99.90;;;;;;5084340;22;20496;-59
2022/08/30 04:11:42;;;;;;;38.63;24.70;;;13.90;99.90;;;;;;5070184;28;20439;-59
2022/08/30 04:14:07;;;;;;;46.17;26.90;;;13.90;99.90;;;;;;5058404;28;20948;-59
2022/08/30 04:16:33;;;;;;;43.87;25.90;;;13.90;99.90;;;;;;5063083;28;20178;-59
2022/08/30 04:18:59;;;;;;;42.77;24.93;;;13.90;99.90;;;;;;5054639;28;20198;-57
2022/08/30 04:21:25;;;;;;;42.43;24.50;;;13.90;99.90;;;;;;5071453;28;20866;-56
2022/08/30 04:23:51;;;;;;;42.23;25.40;;;13.90;99.90;;;;;;5073002;28;20167;-59
2022/08/30 04:26:16;;;;;;;49.77;28.70;;;13.90;99.90;;;;;;5058790;28;20435;-56
2022/08/30 04:28:42;;;;;;;51.20;27.93;;;13.90;99.90;;;;;;5061816;28;20395;-57
2022/08/30 04:31:13;;;;;;;47.87;29.77;;;13.90;99.90;;;;;;5055559;28;20225;-53
2022/08/30 04:33:40;;;;;;;49.07;28.57;;;13.90;99.90;;;;;;5051572;28;20290;-58
2022/08/30 04:36:08;;;;;;;48.87;25.43;;;13.80;99.90;;;;;;5054312;28;20445;-57
2022/08/30 04:38:35;;;;;;;43.03;23.87;;;13.80;99.90;;;;;;5073892;28;20878;-58
2022/08/30 04:41:01;;;;;;;45.30;23.97;;;13.80;99.90;;;;;;5055794;28;20463;-57
2022/08/30 04:43:27;;;;;;;50.70;24.57;;;13.70;99.90;;;;;;5057415;28;20463;-55
2022/08/30 04:45:54;;;;;;;44.63;24.27;;;13.70;99.90;;;;;;5056529;28;20436;-57
2022/08/30 04:48:21;;;;;;;39.77;24.87;;;13.70;99.90;;;;;;5076153;28;20194;-57
2022/08/30 04:50:47;;;;;;;45.50;22.07;;;13.80;99.90;;;;;;5066880;28;20922;-56
2022/08/30 04:53:14;;;;;;;41.70;22.20;;;13.80;99.90;;;;;;5061008;28;20432;-56
2022/08/30 04:55:42;;;;;;;31.70;20.37;;;13.80;99.90;;;;;;5053547;28;20652;-56
2022/08/30 04:58:08;;;;;;;32.80;18.83;;;13.80;99.90;;;;;;5060223;28;20435;-56
2022/08/30 05:00:36;;;;;;;34.57;19.90;;;13.80;99.90;;;;;;5044335;28;20486;-57
2022/08/30 05:03:02;;;;;;;35.57;18.87;;;13.80;99.90;;;;;;5055116;28;20436;-56
2022/08/30 05:05:40;;;;;;;32.90;19.77;;;13.80;99.90;;;;;;5037755;28;20645;-57
2022/08/30 05:08:11;;;;;;;32.03;20.33;;;13.90;99.90;;;;;;5059286;28;20516;-57
2022/08/30 05:10:42;;;;;;;29.10;19.97;;;13.90;99.90;;;;;;5043408;28;20527;-57
2022/08/30 05:13:09;;;;;;;37.17;20.60;;;13.90;99.90;;;;;;5054854;28;20501;-57
2022/08/30 05:15:36;;;;;;;32.60;20.93;;;14.00;99.90;;;;;;5059695;28;20835;-56
2022/08/30 05:18:03;;;;;;;28.23;19.37;;;14.00;99.90;;;;;;5074767;28;20891;-56
2022/08/30 05:20:28;;;;;;;34.60;20.70;;;14.00;99.90;;;;;;5073656;28;20425;-56
2022/08/30 05:22:55;;;;;;;30.83;20.70;;;14.10;99.90;;;;;;5035342;28;20447;-56
2022/08/30 05:25:23;;;;;;;29.77;20.13;;;14.20;99.90;;;;;;5063732;28;20644;-57
2022/08/30 05:27:49;;;;;;;28.90;18.80;;;14.20;99.90;;;;;;5070317;28;20429;-56
2022/08/30 05:30:16;;;;;;;27.70;18.37;;;14.30;99.90;;;;;;5069215;28;20842;-58
2022/08/30 05:32:42;;;;;;;31.63;16.30;;;14.30;99.90;;;;;;5069361;28;20512;-56
2022/08/30 05:35:10;;;;;;;22.40;16.27;;;14.40;99.90;;;;;;5070812;28;20812;-57
2022/08/30 05:37:36;;;;;;;23.90;15.90;;;14.40;99.90;;;;;;5051327;28;20514;-56
2022/08/30 05:40:03;;;;;;;23.50;17.00;;;14.50;99.90;;;;;;5068603;28;20459;-56
2022/08/30 05:42:28;;;;;;;26.87;15.77;;;14.50;99.90;;;;;;5077736;28;20456;-56
2022/08/30 05:44:54;;;;;;;25.07;17.50;;;14.60;99.90;;;;;;5064805;28;20440;-58
2022/08/30 05:47:20;;;;;;;26.80;15.97;;;14.60;99.90;;;;;;5077297;28;20174;-56
2022/08/30 05:49:47;;;;;;;32.70;18.17;;;14.60;99.90;;;;;;5088025;28;20191;-56
2022/08/30 05:52:14;;;;;;;28.20;15.70;;;14.70;99.90;;;;;;5070168;28;20416;-57
2022/08/30 05:54:40;;;;;;;24.40;18.13;;;14.70;99.90;;;;;;5054421;28;20595;-57
2022/08/30 05:57:06;;;;;;;26.03;17.00;;;14.70;99.90;;;;;;5079414;28;20419;-57
2022/08/30 05:59:32;;;;;;;23.67;15.63;;;14.70;99.90;;;;;;5069099;28;20440;-56
2022/08/30 06:01:58;;;;;;;23.20;14.37;;;14.70;99.90;;;;;;5066581;28;20513;-56
2022/08/30 06:04:24;;;;;;;22.13;15.13;;;14.90;99.90;;;;;;5070253;28;20178;-57
2022/08/30 06:06:50;;;;;;;19.40;13.87;;;15.10;99.90;;;;;;5071413;28;20435;-56
2022/08/30 06:09:16;;;;;;;21.80;15.03;;;15.10;99.90;;;;;;5047024;28;20460;-57
2022/08/30 06:11:43;;;;;;;19.97;14.00;;;15.20;99.90;;;;;;5073237;28;20193;-58
2022/08/30 06:14:08;;;;;;;15.03;12.07;;;15.20;99.90;;;;;;5061838;28;20228;-57
2022/08/30 06:16:37;;;;;;;21.53;14.10;;;15.30;99.90;;;;;;5051037;28;20432;-58
2022/08/30 06:19:05;;;;;;;20.63;13.40;;;15.30;99.90;;;;;;5070206;28;20194;-58
2022/08/30 06:21:34;;;;;;;21.67;14.70;;;15.40;99.90;;;;;;5069536;28;20451;-58
2022/08/30 06:24:02;;;;;;;20.93;13.23;;;15.40;99.90;;;;;;5067647;28;20498;-57
2022/08/30 06:26:28;;;;;;;17.67;13.63;;;15.50;99.90;;;;;;5072253;28;20436;-57
2022/08/30 06:28:55;;;;;;;22.00;15.00;;;15.50;99.90;;;;;;5075548;28;21022;-58
2022/08/30 06:31:22;;;;;;;19.90;13.50;;;15.60;99.90;;;;;;5067132;28;20940;-59
2022/08/30 06:33:48;;;;;;;20.23;13.30;;;15.70;99.90;;;;;;5065137;28;20537;-57
2022/08/30 06:36:18;;;;;;;21.37;13.70;;;15.80;99.90;;;;;;5075207;28;20447;-57
2022/08/30 06:38:44;;;;;;;20.47;13.63;;;15.90;99.90;;;;;;5068132;28;20448;-58
2022/08/30 06:41:12;;;;;;;22.10;12.10;;;15.90;99.90;;;;;;5067034;28;20452;-58
2022/08/30 06:43:38;;;;;;;15.70;11.63;;;16.00;99.90;;;;;;5062958;28;20433;-58
2022/08/30 06:46:07;;;;;;;17.80;11.07;;;16.10;99.90;;;;;;5061643;28;20791;-57
2022/08/30 06:48:33;;;;;;;14.23;11.60;;;16.10;99.90;;;;;;5072778;28;20198;-57
2022/08/30 06:50:58;;;;;;;19.90;12.07;;;16.10;99.90;;;;;;5065275;28;20482;-58
2022/08/30 06:53:25;;;;;;;13.70;10.30;;;16.20;99.90;;;;;;5074770;28;20227;-57
2022/08/30 06:55:57;;;;;;;17.63;11.10;;;16.30;99.90;;;;;;5080768;28;20170;-58
2022/08/30 06:58:24;;;;;;;13.57;10.37;;;16.40;99.90;;;;;;5056241;28;20448;-58
2022/08/30 07:00:49;;;;;;;14.90;10.63;;;16.40;99.90;;;;;;5059260;28;20526;-58
2022/08/30 07:03:15;;;;;;;14.77;11.57;;;16.60;99.90;;;;;;5072625;28;20460;-57
2022/08/30 07:05:40;;;;;;;16.03;12.00;;;16.60;99.90;;;;;;5074366;28;20643;-58
2022/08/30 07:08:06;;;;;;;14.80;12.80;;;16.70;99.90;;;;;;5059503;28;20233;-58
2022/08/30 07:10:32;;;;;;;13.90;11.17;;;16.80;99.90;;;;;;5048812;28;20163;-59
2022/08/30 07:12:58;;;;;;;15.60;11.37;;;16.90;99.90;;;;;;5073647;28;20172;-57
2022/08/30 07:15:23;;;;;;;16.40;11.00;;;16.90;99.90;;;;;;5062897;28;20206;-58
2022/08/30 07:20:41;;;;;;;14.87;9.70;;;17.00;99.90;;;;;;5056607;28;20198;-58
2022/08/30 07:23:08;;;;;;;14.67;11.57;;;17.10;99.90;;;;;;5072348;28;20432;-59
2022/08/30 07:25:36;;;;;;;14.03;10.70;;;17.20;99.90;;;;;;5064851;28;20170;-58
2022/08/30 07:28:04;;;;;;;15.87;10.93;;;17.30;99.90;;;;;;5073068;28;20425;-58
2022/08/30 07:30:30;;;;;;;15.50;11.20;;;17.30;99.90;;;;;;5077127;28;20428;-58
2022/08/30 07:32:56;;;;;;;17.87;11.03;;;17.40;99.90;;;;;;5081716;28;20519;-58
2022/08/30 07:35:22;;;;;;;15.00;11.40;;;17.40;99.90;;;;;;5075489;28;20432;-57
2022/08/30 07:37:48;;;;;;;16.10;11.60;;;17.50;99.90;;;;;;5088749;28;20776;-58
2022/08/30 07:40:14;;;;;;;14.70;11.07;;;17.60;99.90;;;;;;5067722;28;20552;-60
2022/08/30 07:42:39;;;;;;;14.00;10.73;;;17.70;99.90;;;;;;5066575;28;20546;-58
2022/08/30 07:45:07;;;;;;;15.33;11.63;;;17.80;99.90;;;;;;5071843;28;20223;-58
2022/08/30 07:47:33;;;;;;;17.67;10.90;;;17.90;99.90;;;;;;5047459;28;20171;-58
2022/08/30 07:50:03;;;;;;;17.03;11.70;;;18.00;99.90;;;;;;5065053;28;22514;-58
2022/08/30 07:52:28;;;;;;;17.10;11.00;;;18.10;99.90;;;;;;5064676;28;20202;-58
2022/08/30 07:54:55;;;;;;;19.77;11.90;;;18.20;99.90;;;;;;5063060;28;20472;-59
2022/08/30 07:57:21;;;;;;;15.60;11.37;;;18.30;99.90;;;;;;5073023;28;20182;-58
2022/08/30 07:59:47;;;;;;;16.27;11.07;;;18.50;99.90;;;;;;5064467;28;20510;-55
2022/08/30 08:02:12;;;;;;;15.13;10.70;;;18.60;99.90;;;;;;5065419;28;20209;-57
2022/08/30 08:04:38;;;;;;;16.37;10.30;;;18.80;99.90;;;;;;5085277;28;20304;-58
2022/08/30 08:07:04;;;;;;;17.17;11.00;;;18.90;99.90;;;;;;5075900;28;20642;-58
2022/08/30 08:09:30;;;;;;;15.03;9.83;;;19.00;99.90;;;;;;5072703;28;20233;-56
2022/08/30 08:11:56;;;;;;;11.97;9.50;;;19.20;99.90;;;;;;5063115;28;20642;-56
2022/08/30 08:14:22;;;;;;;12.97;9.73;;;19.30;99.90;;;;;;5058541;28;20186;-56
2022/08/30 08:16:48;;;;;;;16.37;10.07;;;19.40;99.90;;;;;;5067848;28;20181;-56
2022/08/30 08:19:14;;;;;;;10.83;8.47;;;19.50;99.90;;;;;;5061683;28;20444;-57
2022/08/30 08:21:40;;;;;;;13.37;9.07;;;19.60;99.90;;;;;;5057595;28;20457;-56
2022/08/30 08:24:06;;;;;;;11.07;8.97;;;19.70;99.90;;;;;;5051424;28;20183;-56
2022/08/30 08:26:37;;;;;;;14.63;9.23;;;19.70;99.90;;;;;;5066580;28;20202;-56
2022/08/30 08:29:07;;;;;;;13.00;9.00;;;19.80;99.90;;;;;;5066213;28;20463;-56
2022/08/30 08:31:33;;;;;;;12.70;9.30;;;19.80;99.90;;;;;;5064232;28;20457;-56
2022/08/30 08:33:59;;;;;;;15.20;10.10;;;19.90;99.90;;;;;;5056507;28;20525;-56
2022/08/30 08:36:26;;;;;;;13.57;9.47;;;20.10;99.90;;;;;;5070861;28;20273;-55
2022/08/30 08:38:52;;;;;;;10.67;8.70;;;20.20;99.90;;;;;;5061902;28;20464;-56
2022/08/30 08:41:32;;;;;;;11.17;8.80;;;20.40;99.90;;;;;;5061048;28;20459;-56
2022/08/30 08:43:58;;;;;;;11.50;9.20;;;20.50;99.90;;;;;;5047666;28;20485;-56
2022/08/30 08:46:24;;;;;;;13.37;9.07;;;20.70;99.90;;;;;;5066088;28;21004;-58
2022/08/30 08:48:54;;;;;;;13.07;8.47;;;20.80;99.90;;;;;;5076705;28;20186;-58
2022/08/30 08:54:13;;;;;;;10.57;8.93;;;21.10;99.90;;;;;;5058199;28;20442;-59
2022/08/30 08:56:38;;;;;;;11.67;8.43;;;21.30;99.90;;;;;;5065093;28;20433;-58
2022/08/30 08:59:07;;;;;;;15.17;7.93;;;21.50;99.90;;;;;;5063392;28;20455;-59
2022/08/30 09:01:34;;;;;;;10.23;8.17;;;21.60;99.90;;;;;;5069951;28;20671;-58
2022/08/30 09:04:08;;;;;;;9.50;7.60;;;21.70;99.90;;;;;;5063419;28;20509;-56
2022/08/30 09:06:45;;;;;;;9.90;7.40;;;21.90;99.90;;;;;;5052300;28;20433;-57
2022/08/30 09:09:12;;;;;;;7.93;7.13;;;22.00;98.60;;;;;;5062538;28;20831;-56
2022/08/30 09:11:39;;;;;;;9.47;7.27;;;22.10;98.00;;;;;;5053724;28;20441;-56
2022/08/30 09:14:13;;;;;;;10.50;7.70;;;22.30;97.20;;;;;;5051375;28;21010;-57
2022/08/30 09:16:46;;;;;;;11.53;6.77;;;22.50;95.70;;;;;;5055510;28;20531;-56
2022/08/30 09:19:30;;;;;;;7.83;6.63;;;22.60;94.30;;;;;;5061759;28;20448;-56
2022/08/30 09:22:05;;;;;;;10.53;6.77;;;22.80;85.60;;;;;;5053891;28;20768;-57
2022/08/30 09:25:03;;;;;;;8.90;7.30;;;22.80;79.10;;;;;;5059796;28;20428;-55
2022/08/30 09:27:31;;;;;;;9.10;6.70;;;22.90;76.90;;;;;;5060067;28;20409;-55
2022/08/30 09:30:30;;;;;;;7.00;5.70;;;22.90;77.40;;;;;;5052419;28;20447;-57
2022/08/30 09:32:59;;;;;;;6.70;5.27;;;23.10;74.20;;;;;;5041610;28;20531;-57
2022/08/30 09:35:33;;;;;;;8.03;6.70;;;23.20;72.60;;;;;;5056776;28;20447;-56
2022/08/30 09:38:28;;;;;;;8.07;5.67;;;23.40;72.30;;;;;;5056842;28;20429;-56
2022/08/30 09:40:57;;;;;;;7.47;5.60;;;23.50;71.10;;;;;;5037806;28;20857;-58
2022/08/30 09:43:32;;;;;;;5.97;5.37;;;23.60;71.90;;;;;;5052346;28;20540;-55
2022/08/30 09:45:58;;;;;;;6.13;5.10;;;23.70;68.30;;;;;;5054721;28;20436;-56
2022/08/30 09:48:42;;;;;;;10.70;5.50;;;23.80;64.60;;;;;;5054627;28;20461;-55
2022/08/30 09:51:13;;;;;;;8.90;5.00;;;23.90;61.80;;;;;;5046950;28;20549;-56
2022/08/30 09:54:04;;;;;;;6.87;5.40;;;24.00;60.00;;;;;;5049844;28;20436;-57
2022/08/30 09:56:38;;;;;;;5.80;4.60;;;24.20;59.50;;;;;;5054074;28;20440;-56
2022/08/30 09:59:36;;;;;;;5.17;4.67;;;24.30;59.20;;;;;;5050277;28;20561;-57
2022/08/30 10:02:36;;;;;;;5.00;4.50;;;24.50;57.90;;;;;;5051657;28;20456;-56
2022/08/30 10:05:20;;;;;;;5.20;4.33;;;24.60;57.80;;;;;;5056037;28;20602;-57
2022/08/30 10:08:05;;;;;;;7.03;4.83;;;24.70;57.80;;;;;;5056907;28;20455;-55
2022/08/30 10:10:46;;;;;;;6.33;4.43;;;24.70;57.10;;;;;;5062399;28;20494;-56
2022/08/30 10:13:36;;;;;;;7.67;5.50;;;24.80;56.60;;;;;;5055077;28;20425;-55
2022/08/30 10:16:13;;;;;;;4.53;3.93;;;24.80;55.80;;;;;;5057137;28;20512;-56
2022/08/30 10:19:16;;;;;;;5.97;4.80;;;24.70;55.50;;;;;;5058168;28;20456;-56
2022/08/30 10:22:03;;;;;;;5.27;4.77;;;24.60;56.30;;;;;;5064222;28;20453;-57
2022/08/30 10:24:37;;;;;;;8.07;5.73;;;24.50;56.80;;;;;;5094276;22;20488;-55
2022/08/30 10:27:12;;;;;;;6.07;5.07;;;24.40;57.10;;;;;;5060426;28;20424;-55
2022/08/30 10:29:44;;;;;;;7.40;5.20;;;24.30;57.60;;;;;;5064734;28;20663;-55
2022/08/30 10:32:21;;;;;;;5.30;4.67;;;24.30;57.20;;;;;;5066109;28;20424;-58
2022/08/30 10:35:10;;;;;;;6.40;5.50;;;24.30;57.30;;;;;;5071223;28;20539;-55
2022/08/30 10:37:48;;;;;;;16.60;5.90;;;24.40;58.10;;;;;;5058004;28;20423;-55
2022/08/30 10:43:14;;;;;;;5.87;5.13;;;24.60;58.20;;;;;;5065729;28;20467;-58
2022/08/30 10:45:44;;;;;;;5.67;5.07;;;24.80;56.80;;;;;;5058784;28;20425;-56
2022/08/30 10:48:23;;;;;;;8.70;6.33;;;24.80;56.60;;;;;;5056811;28;20996;-57
2022/08/30 10:50:53;;;;;;;5.33;4.80;;;24.80;57.10;;;;;;5066602;28;20450;-56
2022/08/30 10:53:28;;;;;;;6.77;5.30;;;24.80;57.40;;;;;;5062420;28;20575;-56
2022/08/30 10:56:02;;;;;;;8.77;5.37;;;24.90;57.60;;;;;;5063645;28;20443;-55
2022/08/30 10:58:30;;;;;;;6.20;4.90;;;24.90;57.70;;;;;;5066612;28;20424;-55
2022/08/30 11:01:21;;;;;;;5.70;4.50;;;25.00;57.40;;;;;;5065191;28;20451;-56
2022/08/30 11:04:16;;;;;;;7.23;6.13;;;25.10;56.10;;;;;;5027535;28;20436;-57
2022/08/30 11:06:59;;;;;;;5.87;5.27;;;25.20;56.70;;;;;;5061221;28;20412;-55
2022/08/30 11:09:56;;;;;;;5.97;5.03;;;25.40;56.80;;;;;;5058046;28;20936;-56
2022/08/30 11:13:00;;;;;;;6.40;4.80;;;25.60;57.60;;;;;;5055993;28;20449;-56
2022/08/30 11:15:30;;;;;;;5.57;4.97;;;25.80;56.70;;;;;;5042935;28;20460;-55
2022/08/30 11:18:13;;;;;;;7.10;5.50;;;26.00;56.00;;;;;;5046283;28;20467;-55
2022/08/30 11:20:46;;;;;;;12.23;5.50;;;26.20;55.00;;;;;;5062599;28;20418;-56
2022/08/30 11:23:18;;;;;;;5.17;4.67;;;26.30;53.80;;;;;;5055021;28;20428;-56
2022/08/30 11:26:05;;;;;;;7.03;5.37;;;26.40;54.80;;;;;;5050821;28;20733;-59
2022/08/30 11:28:34;;;;;;;10.53;5.50;;;26.50;54.70;;;;;;5045060;28;20428;-58
2022/08/30 11:31:31;;;;;;;4.93;4.50;;;26.70;54.90;;;;;;5059002;28;20432;-53
2022/08/30 11:33:59;;;;;;;9.70;5.37;;;26.80;53.50;;;;;;5059785;28;21423;-54
2022/08/30 11:36:37;;;;;;;8.83;5.10;;;26.90;54.60;;;;;;5054992;28;20512;-55
2022/08/30 11:39:03;;;;;;;7.60;6.33;;;27.10;53.30;;;;;;5062530;28;20439;-55
2022/08/30 11:41:45;;;;;;;8.80;5.23;;;27.20;53.70;;;;;;5063346;28;20461;-54
2022/08/30 11:44:26;;;;;;;5.40;4.77;;;27.30;54.40;;;;;;5054045;28;20983;-58
2022/08/30 11:46:54;;;;;;;9.83;5.80;;;27.50;53.70;;;;;;5047906;28;20428;-57
2022/08/30 11:49:20;;;;;;;8.03;5.43;;;27.60;54.80;;;;;;5055520;28;20178;-58
2022/08/30 11:52:24;;;;;;;6.70;5.07;;;27.70;55.00;;;;;;5060042;28;20192;-57
2022/08/30 11:55:25;;;;;;;7.83;6.00;;;27.90;53.60;;;;;;5038153;28;20296;-53
2022/08/30 11:57:57;;;;;;;8.10;5.73;;;28.10;54.00;;;;;;5053595;28;20244;-56
2022/08/30 12:00:33;;;;;;;6.30;5.60;;;28.30;53.50;;;;;;5059158;28;20188;-57
2022/08/30 12:03:12;;;;;;;8.07;5.70;;;28.20;53.00;;;;;;5054861;28;20174;-58
2022/08/30 12:05:58;;;;;;;6.70;5.87;;;28.10;52.80;;;;;;5060439;28;20190;-57
2022/08/30 12:08:32;;;;;;;6.57;5.97;;;28.10;53.30;;;;;;5058313;28;21159;-53
2022/08/30 12:11:25;;;;;;;7.47;5.60;;;28.20;53.30;;;;;;5056354;28;20186;-53
2022/08/30 12:13:53;;;;;;;7.13;5.93;;;28.10;53.60;;;;;;5028571;28;20217;-52
2022/08/30 12:16:33;;;;;;;6.13;5.53;;;28.40;53.70;;;;;;5051188;28;20202;-51
2022/08/30 12:19:14;;;;;;;5.93;5.33;;;28.60;51.70;;;;;;5042437;28;20204;-54
2022/08/30 12:21:40;;;;;;;6.20;5.60;;;28.80;52.00;;;;;;5060852;28;20696;-52
2022/08/30 12:24:20;;;;;;;7.67;5.40;;;28.90;51.20;;;;;;5060165;28;20257;-52
2022/08/30 12:26:48;;;;;;;6.10;5.50;;;29.00;51.50;;;;;;5052796;28;20261;-52
2022/08/30 12:29:18;;;;;;;7.17;5.30;;;29.10;51.20;;;;;;5058505;28;20281;-52
2022/08/30 12:31:53;;;;;;;5.30;4.45;;;29.10;50.20;;;;;;5055785;28;20232;-53
2022/08/30 12:34:27;;;;;;;7.78;5.22;;;28.90;48.20;;;;;;5063533;28;20236;-51
2022/08/30 12:36:59;;;;;;;8.82;6.20;;;28.90;49.10;;;;;;5058179;28;20182;-55
2022/08/30 12:39:27;;;;;;;8.50;5.47;;;28.70;50.50;;;;;;5053937;28;20174;-53
2022/08/30 12:41:53;;;;;;;7.57;5.93;;;28.50;50.30;;;;;;5058792;28;20213;-58
2022/08/30 12:44:26;;;;;;;6.88;5.50;;;28.50;50.80;;;;;;5050066;28;20202;-57
2022/08/30 12:46:59;;;;;;;7.18;5.05;;;28.60;51.40;;;;;;5053286;28;20577;-59
2022/08/30 12:49:28;;;;;;;8.02;5.80;;;28.80;51.80;;;;;;5058998;28;20201;-59
2022/08/30 12:51:54;;;;;;;7.10;5.68;;;28.80;51.80;;;;;;5059790;28;20173;-59
2022/08/30 12:54:26;;;;;;;6.57;5.43;;;28.80;51.10;;;;;;5057631;28;20572;-55
2022/08/30 12:57:03;;;;;;;9.25;5.60;;;28.90;50.30;;;;;;5061303;28;20181;-55
2022/08/30 12:59:42;;;;;;;6.72;4.70;;;29.10;49.20;;;;;;5058679;28;20186;-58